Terminal Aerodrome Forecast
Issued by NWS

Home | Current Version | Previous Version | Text Only | Print | Product List | Glossary On
Versions: 1 2 3 4 5 6 7 8 9 10 11 12 13 14 15 16 17 18 19 20 21 22 23 24
000
FTUS43 KDLH 210500
TAFHYR
TAF
KHYR 210537Z 2106/2206 00000KT P6SM BKN100
     FM210800 VRB03KT 4SM BR BKN080
     FM211400 31011G17KT P6SM VCSH BKN040
     FM211700 33012G23KT P6SM SCT040=

USA.gov is the U.S. government's official web portal to all federal, state and local government web resources and services.